^^
Your Local Weather - Clay, NY Station Historical Data
Daily Summary for March 6, 2017 Units:  Metric    English   Both
« Previous Day
Next Day »
Daily Weekly Monthly Yearly Custom
  High: Low: Average:
Temperature: 5.9 °C -7.2 °C -0.3 °C
Dew Point: -5.2 °C -16.7 °C -10.2 °C
Humidity: 60% 39% 48%
Wind Speed: 9.7km/h 0km/h 5km/h
Wind Gust: 17.7km/h - -
Wind- - ENE
Pressure: 1032.1 hPa 1021.6 hPa -
Precipitation: 0 mm    
Historical Graphs
 
 
Tabular Data for March 6, 2017
Time Temperature Dew Point Pressure Wind Wind Speed Wind Gust Humidity Rainfall Rate (Hourly) solar
00:00 -7.2 °C -15.8 °C 1031.7 hPa East 1.6 km/h 1.6 km/h 50% 0 mm 0 W/m2
00:06 -7.1 °C -15.7 °C 1031.7 hPa East 1.6 km/h 4.8 km/h 50% 0 mm 0 W/m2
00:12 -6.8 °C -15.6 °C 1031.7 hPa ENE 1.6 km/h 1.6 km/h 50% 0 mm 0 W/m2
00:18 -6.6 °C -15.8 °C 1031.7 hPa ENE 1.6 km/h 4.8 km/h 48% 0 mm 0 W/m2
00:24 -6.4 °C -15.9 °C 1031.7 hPa ENE 1.6 km/h 1.6 km/h 47% 0 mm 0 W/m2
00:30 -6.3 °C -16.1 °C 1031.7 hPa Calm   1.6 km/h 46% 0 mm 0 W/m2
00:36 -6.2 °C -16.2 °C 1032.1 hPa East 1.6 km/h 3.2 km/h 45% 0 mm 0 W/m2
00:42 -6.1 °C -16.1 °C 1032.1 hPa ESE 1.6 km/h 3.2 km/h 45% 0 mm 0 W/m2
00:48 -5.8 °C -16.7 °C 1032.1 hPa ENE 1.6 km/h 4.8 km/h 42% 0 mm 0 W/m2
00:54 -5.7 °C -16 °C 1032.1 hPa ENE 3.2 km/h 3.2 km/h 44% 0 mm 0 W/m2
01:00 -5.6 °C -16.5 °C 1032.1 hPa East 3.2 km/h 3.2 km/h 42% 0 mm 0 W/m2
01:06 -5.6 °C -16.4 °C 1032.1 hPa East 3.2 km/h 3.2 km/h 42% 0 mm 0 W/m2
01:12 -5.5 °C -16.7 °C 1031.7 hPa SE 3.2 km/h 3.2 km/h 41% 0 mm 0 W/m2
01:18 -5.4 °C -16.3 °C 1031.7 hPa East 3.2 km/h 9.7 km/h 42% 0 mm 0 W/m2
01:24 -5.3 °C -16.3 °C 1031.7 hPa SE 3.2 km/h 9.7 km/h 42% 0 mm 0 W/m2
01:30 -5.3 °C -16.6 °C 1031.7 hPa East 4.8 km/h 4.8 km/h 41% 0 mm 0 W/m2
01:36 -5.3 °C -16.3 °C 1032.1 hPa ENE 3.2 km/h 4.8 km/h 42% 0 mm 0 W/m2
01:42 -5.3 °C -16.2 °C 1032.1 hPa SE 1.6 km/h 4.8 km/h 42% 0 mm 0 W/m2
01:48 -5.3 °C -16.2 °C 1032.1 hPa ENE 3.2 km/h 4.8 km/h 42% 0 mm 0 W/m2
01:54 -5.3 °C -15.7 °C 1031.7 hPa SE 1.6 km/h 3.2 km/h 44% 0 mm 0 W/m2
02:00 -5.2 °C -15.9 °C 1031.7 hPa ENE 3.2 km/h 3.2 km/h 43% 0 mm 0 W/m2
02:06 -5.2 °C -15.9 °C 1031.7 hPa ENE 3.2 km/h 6.4 km/h 43% 0 mm 0 W/m2
02:12 -5.2 °C -15.9 °C 1031.4 hPa ENE 3.2 km/h 3.2 km/h 43% 0 mm 0 W/m2
02:18 -5.2 °C -15.9 °C 1031.4 hPa ENE 4.8 km/h 8 km/h 43% 0 mm 0 W/m2
02:24 -5.2 °C -15.9 °C 1031.4 hPa ENE 4.8 km/h 6.4 km/h 43% 0 mm 0 W/m2
02:30 -5.2 °C -15.6 °C 1031.4 hPa ENE 3.2 km/h 3.2 km/h 44% 0 mm 0 W/m2
02:36 -5.2 °C -15.3 °C 1031.4 hPa ENE 1.6 km/h 3.2 km/h 45% 0 mm 0 W/m2
02:42 -5.2 °C -14.6 °C 1030.7 hPa ENE 3.2 km/h 4.8 km/h 48% 0 mm 0 W/m2
02:48 -5.2 °C -14.8 °C 1030.7 hPa ENE 3.2 km/h 4.8 km/h 47% 0 mm 0 W/m2
02:54 -5.3 °C -14.6 °C 1030.7 hPa East 3.2 km/h 4.8 km/h 48% 0 mm 0 W/m2
03:00 -5.3 °C -14.4 °C 1030.7 hPa ESE 6.4 km/h 6.4 km/h 49% 0 mm 0 W/m2
03:06 -5.4 °C -14.2 °C 1030.7 hPa East 4.8 km/h 8 km/h 50% 0 mm 0 W/m2
03:12 -5.4 °C -13.8 °C 1030.7 hPa ENE 4.8 km/h 8 km/h 52% 0 mm 0 W/m2
03:18 -5.4 °C -13.8 °C 1030.7 hPa ENE 4.8 km/h 8 km/h 52% 0 mm 0 W/m2
03:24 -5.5 °C -13.6 °C 1030.7 hPa NE 4.8 km/h 9.7 km/h 53% 0 mm 0 W/m2
03:30 -5.6 °C -13.4 °C 1030.7 hPa ENE 4.8 km/h 4.8 km/h 54% 0 mm 0 W/m2
03:36 -5.6 °C -13.4 °C 1030.7 hPa East 4.8 km/h 4.8 km/h 54% 0 mm 0 W/m2
03:42 -5.6 °C -13.2 °C 1030.4 hPa ENE 4.8 km/h 6.4 km/h 55% 0 mm 0 W/m2
03:48 -5.6 °C -13.2 °C 1030.4 hPa ENE 4.8 km/h 11.3 km/h 55% 0 mm 0 W/m2
03:54 -5.7 °C -13.1 °C 1030.4 hPa ENE 4.8 km/h 4.8 km/h 56% 0 mm 0 W/m2
04:00 -5.7 °C -13.3 °C 1030.4 hPa ESE 4.8 km/h 4.8 km/h 55% 0 mm 0 W/m2
04:06 -5.7 °C -13.1 °C 1030.4 hPa SE 4.8 km/h 6.4 km/h 56% 0 mm 0 W/m2
04:12 -5.6 °C -13 °C 1030.4 hPa ENE 4.8 km/h 9.7 km/h 56% 0 mm 0 W/m2
04:18 -5.6 °C -12.8 °C 1030.4 hPa East 4.8 km/h 11.3 km/h 57% 0 mm 0 W/m2
04:24 -5.7 °C -12.8 °C 1030 hPa East 4.8 km/h 8 km/h 57% 0 mm 0 W/m2
04:30 -5.7 °C -12.6 °C 1030 hPa East 4.8 km/h 8 km/h 58% 0 mm 0 W/m2
04:36 -5.7 °C -12.8 °C 1030 hPa ENE 4.8 km/h 9.7 km/h 57% 0 mm 0 W/m2
04:42 -5.7 °C -12.8 °C 1030 hPa East 6.4 km/h 6.4 km/h 57% 0 mm 0 W/m2
04:48 -5.6 °C -12.8 °C 1030 hPa ENE 8 km/h 11.3 km/h 57% 0 mm 0 W/m2
04:54 -5.6 °C -13 °C 1030.4 hPa ENE 6.4 km/h 12.9 km/h 56% 0 mm 0 W/m2
05:00 -5.6 °C -12.8 °C 1030.4 hPa ENE 6.4 km/h 6.4 km/h 57% 0 mm 0 W/m2
05:06 -5.6 °C -13 °C 1030.4 hPa East 4.8 km/h 6.4 km/h 56% 0 mm 0 W/m2
05:12 -5.6 °C -13 °C 1030.4 hPa ENE 4.8 km/h 6.4 km/h 56% 0 mm 0 W/m2
05:18 -5.7 °C -12.9 °C 1030 hPa East 6.4 km/h 9.7 km/h 57% 0 mm 0 W/m2
05:24 -5.8 °C -12.8 °C 1030 hPa ENE 6.4 km/h 8 km/h 58% 0 mm 0 W/m2
05:30 -5.9 °C -12.9 °C 1030 hPa East 6.4 km/h 6.4 km/h 58% 0 mm 0 W/m2
05:36 -6.1 °C -13 °C 1029.7 hPa ESE 6.4 km/h 9.7 km/h 58% 0 mm 0 W/m2
05:42 -6.2 °C -13.1 °C 1029.7 hPa ESE 6.4 km/h 14.5 km/h 58% 0 mm 0 W/m2
05:48 -6.2 °C -12.9 °C 1029.7 hPa East 8 km/h 14.5 km/h 59% 0 mm 0 W/m2
05:54 -6.2 °C -12.9 °C 1029.7 hPa East 6.4 km/h 6.4 km/h 59% 0 mm 0 W/m2
06:00 -6.2 °C -12.9 °C 1029.7 hPa East 6.4 km/h 6.4 km/h 59% 0 mm 0 W/m2
06:06 -6.3 °C -13 °C 1029.7 hPa East 3.2 km/h 6.4 km/h 59% 0 mm 0 W/m2
06:12 -6.3 °C -12.8 °C 1029.7 hPa ENE 3.2 km/h 8 km/h 60% 0 mm 0 W/m2
06:18 -6.3 °C -13.1 °C 1029.7 hPa East 6.4 km/h 11.3 km/h 59% 0 mm 0 W/m2
06:24 -6.3 °C -13.1 °C 1029.3 hPa East 8 km/h 11.3 km/h 59% 0 mm 0 W/m2
06:30 -6.3 °C -13.1 °C 1029.3 hPa ENE 8 km/h 8 km/h 59% 0 mm 0 W/m2
06:36 -6.3 °C -13.1 °C 1029.3 hPa ENE 8 km/h 11.3 km/h 59% 0 mm 5 W/m2
06:42 -6.3 °C -13.1 °C 1029.3 hPa ENE 6.4 km/h 11.3 km/h 59% 0 mm 12 W/m2
06:48 -6.3 °C -13.2 °C 1029.7 hPa ESE 4.8 km/h 11.3 km/h 58% 0 mm 18 W/m2
06:54 -6.2 °C -13.4 °C 1029.7 hPa ENE 3.2 km/h 8 km/h 57% 0 mm 21 W/m2
07:00 -6.2 °C -13.3 °C 1029.7 hPa ENE 4.8 km/h 6.4 km/h 57% 0 mm 23 W/m2
07:06 -6.1 °C -13.3 °C 1029.7 hPa ENE 4.8 km/h 6.4 km/h 57% 0 mm 26 W/m2
07:12 -6 °C -13.2 °C 1029.7 hPa ESE 6.4 km/h 6.4 km/h 57% 0 mm 33 W/m2
07:18 -5.9 °C -13.1 °C 1029.7 hPa ENE 4.8 km/h 8 km/h 57% 0 mm 40 W/m2
07:24 -5.7 °C -12.9 °C 1029.7 hPa East 4.8 km/h 4.8 km/h 57% 0 mm 46 W/m2
07:30 -5.6 °C -13 °C 1029.3 hPa East 4.8 km/h 4.8 km/h 56% 0 mm 44 W/m2
07:36 -5.4 °C -12.8 °C 1029.3 hPa East 3.2 km/h 8 km/h 56% 0 mm 47 W/m2
07:42 -5.3 °C -12.9 °C 1029.3 hPa ENE 3.2 km/h 3.2 km/h 55% 0 mm 62 W/m2
07:48 -5.2 °C -12.9 °C 1029 hPa ENE 3.2 km/h 8 km/h 55% 0 mm 97 W/m2
07:54 -4.9 °C -12.6 °C 1029 hPa ESE 4.8 km/h 8 km/h 55% 0 mm 134 W/m2
08:00 -4.4 °C -12.6 °C 1028.7 hPa East 4.8 km/h 4.8 km/h 53% 0 mm 192 W/m2
08:06 -4.4 °C -12.8 °C 1028.7 hPa ENE 6.4 km/h 14.5 km/h 52% 0 mm 62 W/m2
08:12 -4.4 °C -12.8 °C 1028.7 hPa ESE 6.4 km/h 6.4 km/h 52% 0 mm 58 W/m2
08:18 -4.3 °C -12.9 °C 1029 hPa ESE 4.8 km/h 6.4 km/h 51% 0 mm 56 W/m2
08:24 -4.2 °C -12.6 °C 1028.7 hPa East 4.8 km/h 4.8 km/h 52% 0 mm 51 W/m2
08:30 -4.1 °C -13 °C 1028.7 hPa ENE 4.8 km/h 4.8 km/h 50% 0 mm 53 W/m2
08:36 -4.1 °C -12.7 °C 1028.7 hPa ENE 4.8 km/h 8 km/h 51% 0 mm 58 W/m2
08:42 -3.9 °C -12.6 °C 1028.7 hPa ESE 6.4 km/h 6.4 km/h 51% 0 mm 58 W/m2
08:48 -3.8 °C -12.2 °C 1028.7 hPa East 6.4 km/h 8 km/h 52% 0 mm 58 W/m2
08:54 -3.7 °C -12.4 °C 1028.7 hPa East 6.4 km/h 6.4 km/h 51% 0 mm 65 W/m2
09:00 -3.7 °C -12.3 °C 1028.3 hPa East 6.4 km/h 9.7 km/h 51% 0 mm 62 W/m2
09:06 -3.7 °C -12.6 °C 1028.3 hPa East 6.4 km/h 9.7 km/h 50% 0 mm 56 W/m2
09:10 -3.7 °C -12.4 °C 1028.3 hPa East 8 km/h 9.7 km/h 51% 0 mm 53 W/m2
09:16 -3.7 °C -12.1 °C 1028.3 hPa East 8 km/h 9.7 km/h 52% 0 mm 54 W/m2
09:18 -3.7 °C -12.3 °C 1028.3 hPa East 6.4 km/h 9.7 km/h 51% 0 mm 56 W/m2
09:24 -3.6 °C -12.3 °C 1028 hPa East 4.8 km/h 8 km/h 51% 0 mm 60 W/m2
09:30 -3.6 °C -12.1 °C 1028 hPa East 6.4 km/h 8 km/h 52% 0 mm 69 W/m2
09:36 -3.6 °C -12.2 °C 1028 hPa ENE 6.4 km/h 8 km/h 51% 0 mm 74 W/m2
09:42 -3.5 °C -12.2 °C 1028 hPa ENE 6.4 km/h 12.9 km/h 51% 0 mm 69 W/m2
09:48 -3.4 °C -12.1 °C 1028 hPa ENE 8 km/h 12.9 km/h 51% 0 mm 88 W/m2
09:54 -3.3 °C -12 °C 1028 hPa ENE 8 km/h 14.5 km/h 51% 0 mm 107 W/m2
10:00 -3.1 °C -12.1 °C 1028 hPa ENE 6.4 km/h 6.4 km/h 50% 0 mm 123 W/m2
10:06 -2.8 °C -11.6 °C 1027.7 hPa NE 4.8 km/h 8 km/h 51% 0 mm 144 W/m2
10:12 -2.7 °C -11.7 °C 1027.7 hPa ENE 6.4 km/h 6.4 km/h 50% 0 mm 160 W/m2
10:18 -2.3 °C -11.6 °C 1027.3 hPa East 6.4 km/h 8 km/h 49% 0 mm 156 W/m2
10:24 -2.2 °C -11.7 °C 1027.3 hPa East 6.4 km/h 8 km/h 48% 0 mm 188 W/m2
10:30 -1.9 °C -11.5 °C 1027 hPa East 8 km/h 8 km/h 48% 0 mm 264 W/m2
10:36 -1.6 °C -11.2 °C 1027 hPa East 8 km/h 9.7 km/h 48% 0 mm 311 W/m2
10:42 -1.1 °C -10.9 °C 1027 hPa NE 4.8 km/h 6.4 km/h 47% 0 mm 348 W/m2
10:48 -0.9 °C -10.8 °C 1027 hPa ENE 6.4 km/h 11.3 km/h 47% 0 mm 257 W/m2
10:54 -0.8 °C -10.7 °C 1027 hPa ESE 6.4 km/h 6.4 km/h 47% 0 mm 241 W/m2
11:00 -0.6 °C -10.8 °C 1027 hPa ENE 4.8 km/h 4.8 km/h 46% 0 mm 216 W/m2
11:06 -0.6 °C -11.4 °C 1027 hPa East 6.4 km/h 8 km/h 44% 0 mm 267 W/m2
11:12 -0.3 °C -10.8 °C 1027 hPa East 6.4 km/h 8 km/h 45% 0 mm 239 W/m2
11:18 -0.2 °C -11 °C 1026.6 hPa ESE 6.4 km/h 9.7 km/h 44% 0 mm 248 W/m2
11:24 -0.1 °C -10.9 °C 1026.6 hPa East 6.4 km/h 8 km/h 44% 0 mm 294 W/m2
11:30 0.4 °C -9.9 °C 1026.3 hPa NNE 4.8 km/h 4.8 km/h 46% 0 mm 316 W/m2
11:36 0.7 °C -10.2 °C 1026.3 hPa East 4.8 km/h 4.8 km/h 44% 0 mm 336 W/m2
11:42 0.8 °C -10.4 °C 1026.3 hPa ENE 6.4 km/h 6.4 km/h 43% 0 mm 345 W/m2
11:48 0.8 °C -9.8 °C 1026.3 hPa ENE 8 km/h 8 km/h 45% 0 mm 302 W/m2
11:54 1.1 °C -9.6 °C 1026.3 hPa NE 4.8 km/h 6.4 km/h 45% 0 mm 315 W/m2
12:00 1.2 °C -9.4 °C 1026 hPa East 6.4 km/h 17.7 km/h 45% 0 mm 364 W/m2
12:06 1.4 °C -9.6 °C 1026 hPa NE 6.4 km/h 17.7 km/h 44% 0 mm 339 W/m2
12:12 1.6 °C -9.3 °C 1026 hPa SSE 4.8 km/h 6.4 km/h 44% 0 mm 376 W/m2
12:18 2.1 °C -9.2 °C 1026 hPa NE 3.2 km/h 6.4 km/h 43% 0 mm 383 W/m2
12:24 2 °C -9 °C 1026 hPa East 4.8 km/h 6.4 km/h 44% 0 mm 352 W/m2
12:30 2.2 °C -9.7 °C 1026 hPa ENE 6.4 km/h 6.4 km/h 41% 0 mm 320 W/m2
12:36 2.3 °C -9.3 °C 1026 hPa ENE 6.4 km/h 9.7 km/h 42% 0 mm 330 W/m2
12:42 2.7 °C -8.7 °C 1025.6 hPa ENE 4.8 km/h 6.4 km/h 43% 0 mm 383 W/m2
12:48 3.1 °C -8.9 °C 1025.6 hPa ENE 4.8 km/h 11.3 km/h 41% 0 mm 345 W/m2
12:54 3.6 °C -8.8 °C 1025.3 hPa ESE 4.8 km/h 11.3 km/h 40% 0 mm 378 W/m2
13:00 3.5 °C -8.8 °C 1025.3 hPa East 4.8 km/h 9.7 km/h 40% 0 mm 380 W/m2
13:06 3.6 °C -8.5 °C 1025.3 hPa ENE 6.4 km/h 9.7 km/h 41% 0 mm 439 W/m2
13:12 3.8 °C -8.6 °C 1024.9 hPa ENE 8 km/h 11.3 km/h 40% 0 mm 415 W/m2
13:18 4.4 °C -7.1 °C 1024.9 hPa NE 6.4 km/h 11.3 km/h 43% 0 mm 429 W/m2
13:24 5.1 °C -7.1 °C 1024.6 hPa East 4.8 km/h 12.9 km/h 41% 0 mm 425 W/m2
13:30 4.4 °C -8.3 °C 1024.3 hPa ENE 4.8 km/h 4.8 km/h 39% 0 mm 494 W/m2
13:36 4.7 °C -7.8 °C 1024.3 hPa NE 8 km/h 8 km/h 40% 0 mm 459 W/m2
13:42 4.8 °C -7.3 °C 1024.3 hPa ESE 6.4 km/h 6.4 km/h 41% 0 mm 374 W/m2
13:48 5 °C -7.5 °C 1024.3 hPa ESE 6.4 km/h 6.4 km/h 40% 0 mm 315 W/m2
13:54 5.3 °C -6.6 °C 1024.3 hPa NE 4.8 km/h 6.4 km/h 42% 0 mm 336 W/m2
14:00 5.9 °C -6.7 °C 1024.3 hPa ENE 1.6 km/h 1.6 km/h 40% 0 mm 425 W/m2
14:06 5.8 °C -7.1 °C 1024.3 hPa NNE 3.2 km/h 6.4 km/h 39% 0 mm 373 W/m2
14:12 5.6 °C -7.3 °C 1024.3 hPa East 4.8 km/h 8 km/h 39% 0 mm 413 W/m2
14:18 5.5 °C -7.1 °C 1023.9 hPa ENE 4.8 km/h 8 km/h 40% 0 mm 250 W/m2
14:24 5.3 °C -7.2 °C 1023.9 hPa East 4.8 km/h 8 km/h 40% 0 mm 250 W/m2
14:30 5.2 °C -7.3 °C 1023.6 hPa East 6.4 km/h 6.4 km/h 40% 0 mm 364 W/m2
14:36 5.2 °C -7.3 °C 1023.6 hPa East 8 km/h 8 km/h 40% 0 mm 388 W/m2
14:44 5 °C -7.5 °C 1023.6 hPa ENE 9.7 km/h 9.7 km/h 40% 0 mm 436 W/m2
14:50 5.2 °C -7.1 °C 1023.6 hPa East 8 km/h 11.3 km/h 41% 0 mm 306 W/m2
14:56 5.2 °C -7.7 °C 1023.9 hPa ENE 6.4 km/h 11.3 km/h 39% 0 mm 272 W/m2
15:02 5.3 °C -7.2 °C 1023.9 hPa NE 6.4 km/h 6.4 km/h 40% 0 mm 369 W/m2
15:08 5.7 °C -6.6 °C 1023.9 hPa East 6.4 km/h 8 km/h 41% 0 mm 341 W/m2
15:14 5.6 °C -6.9 °C 1023.6 hPa NE 4.8 km/h 6.4 km/h 40% 0 mm 327 W/m2
15:20 5.6 °C -7 °C 1023.6 hPa East 6.4 km/h 9.7 km/h 40% 0 mm 172 W/m2
15:26 5.5 °C -7.1 °C 1023.6 hPa ENE 6.4 km/h 9.7 km/h 40% 0 mm 225 W/m2
15:32 5.5 °C -7.1 °C 1023.2 hPa ENE 6.4 km/h 6.4 km/h 40% 0 mm 262 W/m2
15:38 5.4 °C -7.1 °C 1023.2 hPa ENE 8 km/h 11.3 km/h 40% 0 mm 206 W/m2
15:44 5.6 °C -6.7 °C 1023.2 hPa NNE 6.4 km/h 8 km/h 41% 0 mm 146 W/m2
15:50 5.5 °C -7.1 °C 1023.2 hPa ENE 3.2 km/h 4.8 km/h 40% 0 mm 120 W/m2
15:56 5.4 °C -6.8 °C 1023.2 hPa ENE 4.8 km/h 9.7 km/h 41% 0 mm 134 W/m2
16:02 5.3 °C -7.2 °C 1023.2 hPa NE 4.8 km/h 4.8 km/h 40% 0 mm 111 W/m2
16:08 5.3 °C -6.9 °C 1023.2 hPa ENE 4.8 km/h 6.4 km/h 41% 0 mm 86 W/m2
16:14 5.2 °C -7.3 °C 1023.2 hPa East 4.8 km/h 8 km/h 40% 0 mm 83 W/m2
16:20 5.2 °C -7.1 °C 1023.2 hPa East 6.4 km/h 6.4 km/h 41% 0 mm 62 W/m2
16:26 5.1 °C -6.8 °C 1023.2 hPa East 6.4 km/h 12.9 km/h 42% 0 mm 56 W/m2
16:32 5.1 °C -6.8 °C 1022.9 hPa NE 6.4 km/h 6.4 km/h 42% 0 mm 54 W/m2
16:38 5 °C -6.9 °C 1022.9 hPa East 4.8 km/h 8 km/h 42% 0 mm 47 W/m2
16:44 5 °C -6.9 °C 1023.2 hPa ENE 3.2 km/h 4.8 km/h 42% 0 mm 47 W/m2
16:50 5 °C -6.9 °C 1023.2 hPa ENE 3.2 km/h 3.2 km/h 42% 0 mm 44 W/m2
16:56 5 °C -6.6 °C 1023.2 hPa ENE 3.2 km/h 3.2 km/h 43% 0 mm 39 W/m2
17:02 4.9 °C -6.9 °C 1023.2 hPa East 3.2 km/h 6.4 km/h 42% 0 mm 28 W/m2
17:08 4.9 °C -6.7 °C 1023.2 hPa ENE 3.2 km/h 8 km/h 43% 0 mm 25 W/m2
17:12 4.8 °C -6.7 °C 1023.2 hPa East 1.6 km/h 3.2 km/h 43% 0 mm 26 W/m2
17:18 4.8 °C -6.4 °C 1023.2 hPa ENE 3.2 km/h 3.2 km/h 44% 0 mm 30 W/m2
17:24 4.8 °C -5.9 °C 1023.2 hPa East 3.2 km/h 3.2 km/h 46% 0 mm 35 W/m2
17:26 4.7 °C -6.2 °C 1023.2 hPa East 3.2 km/h 3.2 km/h 45% 0 mm 37 W/m2
17:32 4.7 °C -6.5 °C 1023.2 hPa East 3.2 km/h 3.2 km/h 44% 0 mm 26 W/m2
17:38 4.7 °C -6.3 °C 1022.9 hPa ESE 3.2 km/h 3.2 km/h 45% 0 mm 12 W/m2
17:44 4.6 °C -6.1 °C 1022.9 hPa East 3.2 km/h 4.8 km/h 46% 0 mm 7 W/m2
17:50 4.6 °C -6.6 °C 1022.9 hPa East 4.8 km/h 4.8 km/h 44% 0 mm 0 W/m2
17:56 4.6 °C -6.4 °C 1022.6 hPa East 4.8 km/h 9.7 km/h 45% 0 mm 0 W/m2
18:02 4.6 °C -6.6 °C 1022.6 hPa ENE 3.2 km/h 6.4 km/h 44% 0 mm 0 W/m2
18:10 4.6 °C -6.7 °C 1022.6 hPa East 3.2 km/h 3.2 km/h 44% 0 mm 0 W/m2
18:16 4.6 °C -6.1 °C 1022.6 hPa East 4.8 km/h 4.8 km/h 46% 0 mm 0 W/m2
18:22 4.6 °C -6.6 °C 1022.6 hPa ENE 4.8 km/h 6.4 km/h 44% 0 mm 0 W/m2
18:26 4.6 °C -6.4 °C 1022.6 hPa ENE 4.8 km/h 4.8 km/h 45% 0 mm 0 W/m2
18:32 4.4 °C -5.9 °C 1022.6 hPa ENE 3.2 km/h 8 km/h 47% 0 mm 0 W/m2
18:38 4.3 °C -6.9 °C 1022.9 hPa NE 4.8 km/h 6.4 km/h 44% 0 mm 0 W/m2
18:44 4.2 °C -6.4 °C 1022.9 hPa ENE 4.8 km/h 6.4 km/h 46% 0 mm 0 W/m2
18:50 4.1 °C -6.8 °C 1022.6 hPa ENE 4.8 km/h 11.3 km/h 45% 0 mm 0 W/m2
18:56 4.1 °C -7.4 °C 1022.6 hPa ENE 4.8 km/h 11.3 km/h 43% 0 mm 0 W/m2
19:03 4.1 °C -7.7 °C 1022.6 hPa East 6.4 km/h 8 km/h 42% 0 mm 0 W/m2
19:08 4 °C -7.5 °C 1022.6 hPa ENE 4.8 km/h 8 km/h 43% 0 mm 0 W/m2
19:14 3.9 °C -6.7 °C 1022.6 hPa East 4.8 km/h 4.8 km/h 46% 0 mm 0 W/m2
19:20 3.9 °C -7 °C 1022.6 hPa NE 4.8 km/h 4.8 km/h 45% 0 mm 0 W/m2
19:26 3.8 °C -7.3 °C 1022.6 hPa ENE 4.8 km/h 6.4 km/h 44% 0 mm 0 W/m2
19:32 3.8 °C -7.1 °C 1022.6 hPa ENE 3.2 km/h 8 km/h 45% 0 mm 0 W/m2
19:36 3.6 °C -6.9 °C 1022.6 hPa ENE 4.8 km/h 8 km/h 46% 0 mm 0 W/m2
19:42 3.3 °C -6.7 °C 1022.6 hPa NE 4.8 km/h 4.8 km/h 48% 0 mm 0 W/m2
19:48 3.3 °C -6.7 °C 1022.6 hPa East 4.8 km/h 4.8 km/h 48% 0 mm 0 W/m2
19:54 3.2 °C -6.5 °C 1022.6 hPa East 1.6 km/h 3.2 km/h 49% 0 mm 0 W/m2
20:00 3.1 °C -6.6 °C 1022.6 hPa East 1.6 km/h 3.2 km/h 49% 0 mm 0 W/m2
20:06 3 °C -6.7 °C 1022.6 hPa East 3.2 km/h 4.8 km/h 49% 0 mm 0 W/m2
20:12 3.1 °C -6.6 °C 1022.6 hPa ENE 3.2 km/h 4.8 km/h 49% 0 mm 0 W/m2
20:18 3.1 °C -6.6 °C 1022.6 hPa East 3.2 km/h 4.8 km/h 49% 0 mm 0 W/m2
20:24 3.1 °C -6.6 °C 1022.6 hPa ENE 3.2 km/h 4.8 km/h 49% 0 mm 0 W/m2
20:30 3.2 °C -6.5 °C 1022.6 hPa ENE 3.2 km/h 6.4 km/h 49% 0 mm 0 W/m2
20:36 3.3 °C -6.9 °C 1022.6 hPa ENE 4.8 km/h 6.4 km/h 47% 0 mm 0 W/m2
20:42 3.2 °C -6.2 °C 1022.6 hPa ENE 4.8 km/h 4.8 km/h 50% 0 mm 0 W/m2
20:48 3.2 °C -6.3 °C 1022.6 hPa ENE 4.8 km/h 4.8 km/h 50% 0 mm 0 W/m2
20:54 3.3 °C -6.4 °C 1022.6 hPa ENE 4.8 km/h 8 km/h 49% 0 mm 0 W/m2
21:00 3.3 °C -7 °C 1022.6 hPa East 4.8 km/h 9.7 km/h 47% 0 mm 0 W/m2
21:06 3.2 °C -6.5 °C 1022.6 hPa East 4.8 km/h 9.7 km/h 49% 0 mm 0 W/m2
21:08 3.2 °C -7.1 °C 1022.6 hPa ENE 4.8 km/h 9.7 km/h 47% 0 mm 0 W/m2
21:14 3.4 °C -7.1 °C 1022.6 hPa East 6.4 km/h 9.7 km/h 46% 0 mm 0 W/m2
21:20 3.3 °C -6.7 °C 1022.9 hPa NE 4.8 km/h 4.8 km/h 48% 0 mm 0 W/m2
21:26 3.3 °C -6.2 °C 1022.9 hPa ENE 4.8 km/h 4.8 km/h 50% 0 mm 0 W/m2
21:32 3.2 °C -6.6 °C 1022.9 hPa ENE 3.2 km/h 3.2 km/h 49% 0 mm 0 W/m2
21:38 3.2 °C -6.3 °C 1022.9 hPa ENE 4.8 km/h 4.8 km/h 50% 0 mm 0 W/m2
21:44 3.3 °C -7 °C 1022.9 hPa ENE 4.8 km/h 6.4 km/h 47% 0 mm 0 W/m2
21:50 3.4 °C -6.9 °C 1022.6 hPa ENE 6.4 km/h 6.4 km/h 47% 0 mm 0 W/m2
21:56 3.3 °C -6.7 °C 1022.6 hPa NE 6.4 km/h 6.4 km/h 48% 0 mm 0 W/m2
22:02 3.4 °C -7.7 °C 1022.6 hPa East 6.4 km/h 8 km/h 44% 0 mm 0 W/m2
22:08 3.3 °C -7 °C 1022.6 hPa NE 6.4 km/h 9.7 km/h 47% 0 mm 0 W/m2
22:14 3.3 °C -6.9 °C 1022.6 hPa ENE 6.4 km/h 11.3 km/h 47% 0 mm 0 W/m2
22:20 3.4 °C -7.4 °C 1022.6 hPa East 8 km/h 9.7 km/h 45% 0 mm 0 W/m2
22:26 3.4 °C -7.7 °C 1022.2 hPa ENE 8 km/h 12.9 km/h 44% 0 mm 0 W/m2
22:32 3.4 °C -7.4 °C 1022.2 hPa East 6.4 km/h 8 km/h 45% 0 mm 0 W/m2
22:38 3.3 °C -6.7 °C 1022.2 hPa ENE 4.8 km/h 8 km/h 48% 0 mm 0 W/m2
22:44 3.4 °C -7.4 °C 1022.2 hPa East 4.8 km/h 8 km/h 45% 0 mm 0 W/m2
22:50 3.4 °C -7.7 °C 1022.2 hPa ENE 4.8 km/h 6.4 km/h 44% 0 mm 0 W/m2
22:56 3.5 °C -7.3 °C 1022.2 hPa East 6.4 km/h 6.4 km/h 45% 0 mm 0 W/m2
23:02 3.4 °C -7.1 °C 1021.9 hPa ENE 6.4 km/h 6.4 km/h 46% 0 mm 0 W/m2
23:08 3.6 °C -6.7 °C 1021.9 hPa East 4.8 km/h 6.4 km/h 47% 0 mm 0 W/m2
23:14 3.6 °C -6.7 °C 1021.9 hPa ESE 4.8 km/h 6.4 km/h 47% 0 mm 0 W/m2
23:20 3.6 °C -7.2 °C 1021.9 hPa ENE 4.8 km/h 4.8 km/h 45% 0 mm 0 W/m2
23:26 3.6 °C -6.7 °C 1021.9 hPa ENE 4.8 km/h 4.8 km/h 47% 0 mm 0 W/m2
23:32 3.7 °C -6.3 °C 1021.9 hPa East 4.8 km/h 4.8 km/h 48% 0 mm 0 W/m2
23:38 3.6 °C -6.1 °C 1021.9 hPa East 3.2 km/h 8 km/h 49% 0 mm 0 W/m2
23:44 3.6 °C -6.2 °C 1021.6 hPa ENE 3.2 km/h 4.8 km/h 49% 0 mm 0 W/m2
23:50 3.5 °C -5.2 °C 1021.6 hPa East 4.8 km/h 4.8 km/h 53% 0 mm 0 W/m2
23:56 3.6 °C -5.7 °C 1021.6 hPa East 3.2 km/h 8 km/h 51% 0 mm 0 W/m2
Country Meadow, Clay, NY, USA
Compliments of Weather Underground - 2 mb